createdAt,value
2022-10-17T00:01:11.453Z,8.90
2022-10-17T00:03:40.888Z,9.40
2022-10-17T00:06:14.304Z,8.80
2022-10-17T00:08:44.452Z,9.10
2022-10-17T00:11:19.260Z,9.70
2022-10-17T00:13:49.391Z,9.00
2022-10-17T00:16:29.392Z,9.40
2022-10-17T00:18:58.068Z,9.20
2022-10-17T00:21:26.615Z,9.40
2022-10-17T00:23:55.511Z,9.00
2022-10-17T00:26:24.066Z,9.70
2022-10-17T00:28:53.037Z,9.30
2022-10-17T00:31:22.989Z,8.70
2022-10-17T00:33:52.157Z,9.00
2022-10-17T00:36:25.626Z,8.30
2022-10-17T00:38:58.357Z,8.50
2022-10-17T00:41:30.528Z,8.70
2022-10-17T00:44:01.073Z,8.80
2022-10-17T00:46:39.501Z,9.00
2022-10-17T00:49:12.684Z,8.40
2022-10-17T00:51:47.420Z,9.40
2022-10-17T00:54:19.553Z,9.50
2022-10-17T00:56:48.751Z,8.90
2022-10-17T00:59:19.106Z,8.40
2022-10-17T01:01:57.173Z,8.60
2022-10-17T01:04:27.995Z,8.80
2022-10-17T01:06:56.114Z,8.70
2022-10-17T01:09:25.464Z,8.90
2022-10-17T01:12:31.194Z,9.50
2022-10-17T01:15:11.722Z,8.60
2022-10-17T01:17:48.268Z,9.70
2022-10-17T01:20:54.163Z,9.10
2022-10-17T01:24:00.333Z,8.70
2022-10-17T01:26:53.335Z,9.00
2022-10-17T01:29:40.332Z,9.30
2022-10-17T01:32:15.242Z,8.90
2022-10-17T01:34:57.955Z,10.00
2022-10-17T01:37:36.091Z,10.30
2022-10-17T01:40:38.486Z,10.70
2022-10-17T01:43:26.827Z,9.90
2022-10-17T01:46:10.359Z,9.40
2022-10-17T01:48:43.970Z,9.90
2022-10-17T01:51:27.711Z,9.70
2022-10-17T01:54:13.706Z,9.40
2022-10-17T01:56:44.171Z,9.50
2022-10-17T01:59:25.846Z,9.50
2022-10-17T02:01:56.445Z,9.10
2022-10-17T02:04:26.297Z,8.80
2022-10-17T02:06:54.152Z,10.10
2022-10-17T02:09:25.100Z,10.10
2022-10-17T02:12:27.964Z,9.80
2022-10-17T02:15:15.276Z,9.80
2022-10-17T02:18:11.515Z,9.20
2022-10-17T02:20:55.108Z,8.90
2022-10-17T02:23:29.244Z,8.80
2022-10-17T02:26:46.578Z,9.20
2022-10-17T02:29:22.039Z,8.70
2022-10-17T02:31:55.477Z,8.40
2022-10-17T02:34:31.888Z,9.20
2022-10-17T02:37:05.549Z,8.90
2022-10-17T02:39:35.809Z,9.70
2022-10-17T02:42:07.494Z,8.50
2022-10-17T02:44:38.573Z,8.70
2022-10-17T02:47:18.977Z,9.00
2022-10-17T02:49:52.867Z,9.20
2022-10-17T02:52:30.226Z,8.90
2022-10-17T02:55:06.530Z,8.90
2022-10-17T02:57:42.127Z,9.50
2022-10-17T03:00:14.528Z,8.80
2022-10-17T03:02:52.719Z,9.30
2022-10-17T03:05:26.795Z,9.80
2022-10-17T03:07:56.302Z,8.10
2022-10-17T03:10:25.711Z,10.00
2022-10-17T03:12:54.560Z,9.10
2022-10-17T03:15:22.526Z,9.10
2022-10-17T03:17:50.760Z,10.60
2022-10-17T03:20:19.307Z,10.00
2022-10-17T03:22:47.397Z,10.30
2022-10-17T03:25:21.975Z,10.40
2022-10-17T03:27:50.632Z,11.80
2022-10-17T03:30:19.077Z,10.40
2022-10-17T03:32:47.503Z,10.90
2022-10-17T03:35:15.592Z,11.40
2022-10-17T03:37:45.767Z,11.40
2022-10-17T03:40:13.951Z,11.00
2022-10-17T03:42:42.024Z,11.30
2022-10-17T03:45:10.363Z,11.60
2022-10-17T03:47:38.549Z,12.50
2022-10-17T03:50:07.584Z,12.70
2022-10-17T03:52:36.788Z,12.90
2022-10-17T03:55:05.468Z,13.30
2022-10-17T03:57:36.995Z,14.40
2022-10-17T04:00:06.634Z,14.40
2022-10-17T04:02:42.463Z,14.60
2022-10-17T04:05:13.818Z,13.20
2022-10-17T04:07:42.336Z,12.60
2022-10-17T04:10:11.404Z,12.80
2022-10-17T04:12:39.573Z,13.20
2022-10-17T04:15:08.368Z,12.80
2022-10-17T04:17:38.353Z,13.70
2022-10-17T04:20:07.896Z,12.20
2022-10-17T04:22:36.224Z,12.80
2022-10-17T04:25:04.548Z,13.40
2022-10-17T04:27:37.754Z,11.40
2022-10-17T04:30:07.838Z,12.20
2022-10-17T04:32:38.330Z,11.70
2022-10-17T04:35:29.183Z,12.30
2022-10-17T04:38:02.268Z,12.50
2022-10-17T04:40:30.760Z,12.80
2022-10-17T04:43:00.368Z,12.50
2022-10-17T04:45:34.789Z,12.40
2022-10-17T04:48:03.847Z,12.50
2022-10-17T04:50:32.346Z,12.50
2022-10-17T04:53:15.317Z,11.70
2022-10-17T04:55:43.210Z,11.40
2022-10-17T04:58:11.214Z,11.10
2022-10-17T05:00:39.710Z,11.20
2022-10-17T05:03:23.021Z,12.40
2022-10-17T05:05:51.812Z,11.70
2022-10-17T05:08:19.799Z,12.40
2022-10-17T05:10:47.811Z,13.80
2022-10-17T05:13:16.177Z,11.80
2022-10-17T05:15:44.111Z,12.30
2022-10-17T05:18:12.894Z,13.90
2022-10-17T05:20:42.885Z,12.60
2022-10-17T05:23:11.282Z,13.60
2022-10-17T05:25:41.572Z,13.80
2022-10-17T05:28:09.677Z,12.10
2022-10-17T05:30:41.529Z,13.20
2022-10-17T05:33:09.932Z,12.10
2022-10-17T05:35:37.993Z,12.70
2022-10-17T05:38:06.817Z,12.10
2022-10-17T05:40:35.432Z,11.90
2022-10-17T05:43:03.797Z,14.80
2022-10-17T05:45:32.392Z,12.90
2022-10-17T05:48:01.118Z,12.60
2022-10-17T05:50:29.465Z,13.30
2022-10-17T05:53:04.299Z,13.30
2022-10-17T05:55:34.008Z,13.20
2022-10-17T05:58:02.219Z,14.80
2022-10-17T06:00:33.422Z,14.60
2022-10-17T06:03:01.728Z,16.90
2022-10-17T06:05:29.647Z,15.60
2022-10-17T06:08:01.133Z,14.90
2022-10-17T06:10:32.329Z,15.50
2022-10-17T06:13:01.380Z,13.50
2022-10-17T06:15:29.208Z,15.50
2022-10-17T06:18:03.364Z,15.60
2022-10-17T06:20:31.837Z,16.90
2022-10-17T06:23:00.691Z,17.40
2022-10-17T06:25:47.239Z,15.70
2022-10-17T06:28:15.866Z,17.40
2022-10-17T06:30:48.531Z,16.60
2022-10-17T06:33:23.596Z,16.80
2022-10-17T06:35:53.502Z,15.70
2022-10-17T06:38:23.452Z,17.30
2022-10-17T06:40:54.669Z,15.60
2022-10-17T06:43:27.846Z,16.70
2022-10-17T06:46:19.990Z,15.60
2022-10-17T06:49:00.221Z,16.00
2022-10-17T06:51:41.800Z,14.90
2022-10-17T06:54:11.455Z,15.20
2022-10-17T06:56:52.705Z,15.70
2022-10-17T06:59:39.252Z,14.70
2022-10-17T07:02:13.442Z,15.60
2022-10-17T07:04:41.476Z,14.80
2022-10-17T07:07:09.728Z,15.00
2022-10-17T07:09:38.755Z,14.90
2022-10-17T07:12:08.157Z,15.40
2022-10-17T07:14:36.550Z,14.90
2022-10-17T07:17:06.149Z,14.90
2022-10-17T07:19:34.853Z,13.10
2022-10-17T07:22:02.895Z,13.70
2022-10-17T07:24:32.249Z,14.40
2022-10-17T07:27:13.760Z,12.70
2022-10-17T07:29:42.154Z,13.10
2022-10-17T07:32:13.405Z,12.20
2022-10-17T07:34:41.327Z,13.10
2022-10-17T07:37:12.010Z,12.50
2022-10-17T07:39:42.680Z,12.00
2022-10-17T07:42:10.913Z,13.20
2022-10-17T07:44:39.223Z,12.70
2022-10-17T07:47:07.598Z,12.20
2022-10-17T07:49:42.806Z,11.60
2022-10-17T07:52:12.589Z,11.80
2022-10-17T07:54:41.419Z,11.90
2022-10-17T07:57:10.616Z,12.00
2022-10-17T07:59:38.804Z,11.70
2022-10-17T08:02:08.241Z,11.70
2022-10-17T08:04:36.706Z,11.60
2022-10-17T08:07:19.569Z,11.90
2022-10-17T08:09:50.193Z,10.90
2022-10-17T08:12:18.472Z,10.70
2022-10-17T08:14:46.776Z,11.30
2022-10-17T08:17:15.013Z,11.10
2022-10-17T08:19:43.013Z,11.10
2022-10-17T08:22:10.941Z,11.10
2022-10-17T08:24:39.194Z,10.30
2022-10-17T08:27:11.642Z,11.90
2022-10-17T08:29:41.003Z,11.70
2022-10-17T08:32:10.335Z,11.60
2022-10-17T08:34:38.522Z,10.70
2022-10-17T08:37:06.610Z,11.80
2022-10-17T08:39:34.861Z,11.30
2022-10-17T08:42:26.082Z,11.50
2022-10-17T08:45:25.107Z,11.10
2022-10-17T08:47:58.707Z,10.50
2022-10-17T08:50:29.720Z,10.40
2022-10-17T08:53:04.808Z,10.80
2022-10-17T08:55:45.321Z,11.50
2022-10-17T08:58:25.274Z,10.40
2022-10-17T09:01:24.268Z,10.50
2022-10-17T09:04:11.220Z,10.60
2022-10-17T09:06:55.022Z,10.40
2022-10-17T09:09:22.999Z,9.90
2022-10-17T09:12:12.772Z,9.80
2022-10-17T09:14:49.829Z,9.90
2022-10-17T09:17:42.800Z,9.50
2022-10-17T09:20:26.654Z,9.40
2022-10-17T09:22:57.913Z,8.90
2022-10-17T09:25:27.813Z,9.60
2022-10-17T09:28:25.171Z,9.10
2022-10-17T09:31:06.110Z,9.70
2022-10-17T09:33:58.960Z,8.80
2022-10-17T09:36:36.773Z,8.70
2022-10-17T09:39:06.298Z,9.80
2022-10-17T09:41:46.787Z,8.70
2022-10-17T09:44:20.791Z,9.50
2022-10-17T09:47:06.757Z,9.10
2022-10-17T09:49:37.918Z,9.80
2022-10-17T09:52:18.062Z,10.20
2022-10-17T09:54:50.706Z,10.20
2022-10-17T09:57:21.564Z,9.70
2022-10-17T09:59:59.237Z,10.00
2022-10-17T10:02:30.298Z,8.60
2022-10-17T10:05:06.946Z,8.90
2022-10-17T10:07:38.801Z,8.60
2022-10-17T10:10:26.241Z,8.70
2022-10-17T10:13:06.252Z,8.70
2022-10-17T10:15:41.560Z,10.00
2022-10-17T10:18:25.662Z,9.40
2022-10-17T10:21:06.368Z,8.90
2022-10-17T10:23:40.621Z,9.70
2022-10-17T10:26:25.903Z,9.30
2022-10-17T10:29:08.098Z,9.10
2022-10-17T10:31:39.768Z,9.40
2022-10-17T10:34:36.163Z,8.70
2022-10-17T10:37:16.971Z,10.40
2022-10-17T10:39:51.528Z,9.40
2022-10-17T10:42:31.383Z,8.70
2022-10-17T10:45:29.261Z,9.90
2022-10-17T10:48:27.075Z,10.10
2022-10-17T10:51:06.640Z,9.20
2022-10-17T10:53:43.761Z,9.20
2022-10-17T10:56:36.642Z,8.70
2022-10-17T10:59:19.180Z,10.20
2022-10-17T11:02:25.965Z,9.30
2022-10-17T11:05:03.077Z,9.20
2022-10-17T11:07:40.719Z,8.70
2022-10-17T11:10:36.912Z,9.90
2022-10-17T11:13:18.099Z,9.50
2022-10-17T11:15:59.125Z,8.50
2022-10-17T11:18:35.516Z,9.40
2022-10-17T11:21:21.131Z,9.10
2022-10-17T11:24:00.435Z,10.50
2022-10-17T11:26:32.536Z,10.10
2022-10-17T11:29:04.268Z,9.40
2022-10-17T11:31:36.607Z,10.30
2022-10-17T11:34:12.224Z,10.00
2022-10-17T11:36:45.538Z,10.20
2022-10-17T11:39:22.687Z,9.80
2022-10-17T11:42:06.833Z,9.10
2022-10-17T11:44:37.453Z,9.30
2022-10-17T11:47:19.361Z,10.10
2022-10-17T11:49:58.525Z,10.40
2022-10-17T11:52:56.792Z,9.80
2022-10-17T11:55:30.488Z,10.60
2022-10-17T11:58:24.758Z,9.70
2022-10-17T12:01:29.132Z,10.10
2022-10-17T12:04:17.606Z,10.70
2022-10-17T12:07:07.352Z,10.30
2022-10-17T12:09:46.072Z,9.70
2022-10-17T12:12:38.360Z,9.90
2022-10-17T12:15:25.649Z,9.80
2022-10-17T12:18:02.635Z,9.70
2022-10-17T12:20:33.557Z,9.90
2022-10-17T12:23:20.417Z,10.10
2022-10-17T12:26:04.763Z,9.30
2022-10-17T12:28:43.251Z,9.50
2022-10-17T12:31:29.701Z,8.90
2022-10-17T12:34:05.323Z,9.30
2022-10-17T12:36:33.551Z,9.30
2022-10-17T12:39:01.377Z,10.70
2022-10-17T12:41:38.919Z,9.20
2022-10-17T12:44:12.985Z,10.10
2022-10-17T12:46:44.506Z,10.30
2022-10-17T12:49:53.146Z,10.00
2022-10-17T12:52:32.972Z,9.60
2022-10-17T12:55:14.847Z,10.20
2022-10-17T12:58:08.460Z,9.10
2022-10-17T13:01:18.898Z,9.50
2022-10-17T13:03:46.956Z,9.10
2022-10-17T13:06:21.809Z,9.30
2022-10-17T13:09:05.299Z,9.70
2022-10-17T13:11:36.390Z,10.00
2022-10-17T13:14:19.325Z,9.00
2022-10-17T13:17:06.031Z,9.40
2022-10-17T13:19:43.741Z,8.80
2022-10-17T13:22:17.208Z,8.90
2022-10-17T13:24:45.462Z,9.10
2022-10-17T13:27:25.757Z,8.70
2022-10-17T13:29:56.474Z,9.80
2022-10-17T13:32:27.431Z,9.90
2022-10-17T13:35:07.366Z,9.70
2022-10-17T13:37:36.704Z,11.00
2022-10-17T13:40:22.947Z,9.90
2022-10-17T13:42:57.062Z,10.20
2022-10-17T13:45:37.922Z,9.40
2022-10-17T13:48:16.947Z,9.30
2022-10-17T13:50:50.505Z,9.60
2022-10-17T13:53:26.658Z,10.00
2022-10-17T13:56:26.356Z,9.20
2022-10-17T13:58:57.542Z,9.90
2022-10-17T14:01:28.038Z,10.10
2022-10-17T14:04:08.290Z,9.00
2022-10-17T14:06:49.860Z,9.40
2022-10-17T14:09:26.348Z,9.60
2022-10-17T14:12:13.031Z,8.70
2022-10-17T14:15:09.364Z,9.70
2022-10-17T14:17:38.678Z,9.40
2022-10-17T14:23:22.016Z,10.10
2022-10-17T14:26:08.643Z,11.50
2022-10-17T14:28:36.978Z,11.10
2022-10-17T14:31:32.947Z,12.50
2022-10-17T14:34:03.537Z,13.20
2022-10-17T14:36:36.043Z,12.80
2022-10-17T14:39:11.818Z,12.10
2022-10-17T14:41:45.655Z,11.30
2022-10-17T14:44:32.127Z,11.00
2022-10-17T14:47:18.631Z,10.40
2022-10-17T14:50:05.469Z,9.70
2022-10-17T14:52:38.953Z,9.80
2022-10-17T14:55:23.239Z,9.90
2022-10-17T14:57:51.600Z,9.80
2022-10-17T15:00:21.811Z,9.10
2022-10-17T15:02:51.915Z,10.10
2022-10-17T15:05:20.684Z,9.90
2022-10-17T15:07:49.082Z,10.20
2022-10-17T15:10:40.179Z,9.80
2022-10-17T15:13:27.557Z,9.30
2022-10-17T15:15:57.288Z,9.30
2022-10-17T15:18:25.275Z,10.10
2022-10-17T15:21:04.507Z,9.70
2022-10-17T15:23:34.962Z,9.80
2022-10-17T15:26:02.895Z,10.60
2022-10-17T15:28:30.947Z,10.10
2022-10-17T15:30:59.165Z,10.00
2022-10-17T15:33:27.233Z,9.10
2022-10-17T15:35:55.205Z,9.60
2022-10-17T15:38:23.547Z,9.50
2022-10-17T15:40:52.179Z,9.10
2022-10-17T15:43:20.289Z,9.60
2022-10-17T15:45:48.866Z,10.40
2022-10-17T15:48:30.114Z,10.60
2022-10-17T15:50:59.089Z,9.70
2022-10-17T15:53:27.212Z,9.40
2022-10-17T15:55:55.318Z,10.70
2022-10-17T15:58:23.531Z,10.30
2022-10-17T16:00:51.483Z,10.10
2022-10-17T16:03:19.615Z,9.50
2022-10-17T16:05:47.885Z,10.20
2022-10-17T16:08:15.749Z,9.70
2022-10-17T16:10:43.713Z,9.70
2022-10-17T16:13:18.847Z,10.00
2022-10-17T16:15:46.905Z,10.00
2022-10-17T16:18:14.905Z,10.80
2022-10-17T16:20:43.051Z,10.80
2022-10-17T16:23:14.225Z,10.00
2022-10-17T16:25:42.681Z,9.70
2022-10-17T16:28:12.126Z,10.60
2022-10-17T16:30:45.114Z,11.20
2022-10-17T16:33:13.463Z,12.30
2022-10-17T16:35:41.773Z,12.70
2022-10-17T16:38:09.826Z,13.30
2022-10-17T16:40:40.179Z,13.90
2022-10-17T16:43:12.509Z,13.90
2022-10-17T16:45:41.619Z,13.40
2022-10-17T16:48:10.523Z,14.20
2022-10-17T16:50:41.580Z,14.50
2022-10-17T16:53:10.012Z,15.80
2022-10-17T16:55:38.538Z,16.20
2022-10-17T16:58:06.509Z,17.10
2022-10-17T17:00:34.680Z,15.80
2022-10-17T17:03:02.659Z,16.10
2022-10-17T17:05:30.780Z,15.50
2022-10-17T17:08:00.119Z,16.90
2022-10-17T17:10:28.380Z,16.90
2022-10-17T17:12:57.647Z,15.30
2022-10-17T17:15:25.911Z,16.20
2022-10-17T17:17:55.764Z,13.60
2022-10-17T17:20:24.282Z,13.40
2022-10-17T17:22:52.641Z,14.60
2022-10-17T17:25:22.630Z,13.70
2022-10-17T17:27:50.810Z,13.20
2022-10-17T17:30:18.991Z,14.10
2022-10-17T17:32:47.540Z,13.00
2022-10-17T17:35:15.703Z,14.30
2022-10-17T17:37:43.631Z,13.80
2022-10-17T17:40:12.279Z,13.80
2022-10-17T17:42:40.277Z,14.40
2022-10-17T17:45:12.353Z,14.00
2022-10-17T17:47:40.679Z,14.50
2022-10-17T17:50:08.825Z,13.70
2022-10-17T17:52:37.048Z,12.90
2022-10-17T17:55:05.330Z,13.90
2022-10-17T17:57:33.320Z,13.30
2022-10-17T18:00:02.161Z,14.60
2022-10-17T18:02:32.734Z,15.20
2022-10-17T18:05:00.811Z,12.80
2022-10-17T18:07:28.930Z,13.40
2022-10-17T18:09:57.150Z,14.10
2022-10-17T18:12:25.141Z,13.60
2022-10-17T18:14:53.222Z,13.10
2022-10-17T18:17:21.256Z,12.90
2022-10-17T18:19:49.374Z,12.00
2022-10-17T18:22:17.791Z,12.10
2022-10-17T18:24:45.879Z,11.90
2022-10-17T18:27:16.091Z,12.70
2022-10-17T18:29:48.418Z,13.10
2022-10-17T18:32:17.102Z,13.10
2022-10-17T18:34:45.519Z,12.00
2022-10-17T18:37:13.560Z,12.40
2022-10-17T18:39:41.720Z,13.10
2022-10-17T18:42:09.834Z,13.10
2022-10-17T18:44:37.726Z,12.70
2022-10-17T18:47:05.784Z,11.50
2022-10-17T18:49:33.842Z,12.20
2022-10-17T18:52:01.964Z,13.00
2022-10-17T18:54:32.433Z,11.30
2022-10-17T18:57:00.901Z,12.50
2022-10-17T18:59:29.482Z,13.20
2022-10-17T19:01:57.908Z,12.80
2022-10-17T19:04:26.160Z,12.30
2022-10-17T19:06:54.315Z,13.10
2022-10-17T19:09:22.481Z,12.50
2022-10-17T19:11:50.825Z,11.90
2022-10-17T19:14:19.169Z,12.80
2022-10-17T19:16:49.545Z,13.50
2022-10-17T19:19:21.610Z,12.80
2022-10-17T19:21:50.646Z,13.20
2022-10-17T19:24:22.792Z,13.50
2022-10-17T19:26:55.754Z,13.50
2022-10-17T19:29:27.036Z,12.80
2022-10-17T19:34:24.269Z,13.90
2022-10-17T19:36:52.389Z,12.70
2022-10-17T19:39:23.495Z,12.00
2022-10-17T19:41:51.752Z,11.60
2022-10-17T19:44:19.897Z,12.10
2022-10-17T19:46:49.310Z,11.60
2022-10-17T19:49:18.205Z,11.10
2022-10-17T19:51:46.809Z,12.80
2022-10-17T19:54:18.345Z,12.30
2022-10-17T19:56:46.918Z,12.10
2022-10-17T19:59:16.520Z,11.60
2022-10-17T20:01:45.029Z,12.10
2022-10-17T20:04:13.827Z,12.20
2022-10-17T20:06:42.505Z,12.00
2022-10-17T20:09:15.695Z,11.00
2022-10-17T20:11:45.750Z,10.40
2022-10-17T20:14:13.642Z,10.90
2022-10-17T20:16:42.335Z,11.60
2022-10-17T20:19:13.132Z,11.80
2022-10-17T20:21:43.054Z,11.10
2022-10-17T20:24:14.653Z,10.30
2022-10-17T20:26:43.542Z,10.70
2022-10-17T20:29:24.410Z,10.50
2022-10-17T20:31:52.448Z,10.20
2022-10-17T20:34:20.524Z,9.90
2022-10-17T20:36:49.340Z,10.10
2022-10-17T20:39:18.981Z,9.90
2022-10-17T20:41:49.514Z,10.10
2022-10-17T20:44:17.676Z,10.30
2022-10-17T20:47:00.684Z,9.50
2022-10-17T20:49:30.903Z,9.10
2022-10-17T20:52:00.708Z,9.20
2022-10-17T20:54:29.064Z,8.40
2022-10-17T20:56:59.846Z,9.10
2022-10-17T20:59:31.218Z,7.90
2022-10-17T21:01:59.417Z,8.70
2022-10-17T21:04:47.022Z,8.60
2022-10-17T21:07:16.057Z,7.60
2022-10-17T21:09:45.483Z,8.50
2022-10-17T21:12:21.889Z,8.20
2022-10-17T21:15:00.884Z,7.70
2022-10-17T21:17:29.228Z,7.70
2022-10-17T21:19:57.349Z,7.60
2022-10-17T21:22:25.833Z,7.30
2022-10-17T21:24:54.853Z,6.80
2022-10-17T21:27:22.834Z,7.10
2022-10-17T21:29:52.206Z,6.60
2022-10-17T21:32:32.148Z,6.50
2022-10-17T21:35:08.553Z,6.40
2022-10-17T21:37:36.540Z,6.10
2022-10-17T21:40:04.821Z,5.60
2022-10-17T21:42:33.480Z,4.70
2022-10-17T21:45:04.734Z,5.10
2022-10-17T21:47:41.792Z,4.90
2022-10-17T21:50:13.667Z,4.10
2022-10-17T21:52:41.914Z,4.90
2022-10-17T21:55:10.877Z,4.50
2022-10-17T21:57:38.982Z,4.20
2022-10-17T22:00:08.023Z,4.20
2022-10-17T22:02:40.093Z,4.70
2022-10-17T22:05:08.712Z,4.40
2022-10-17T22:07:36.665Z,4.60
2022-10-17T22:10:05.231Z,4.30
2022-10-17T22:12:33.687Z,4.40
2022-10-17T22:15:01.814Z,4.70
2022-10-17T22:17:30.314Z,4.80
2022-10-17T22:19:58.736Z,5.00
2022-10-17T22:22:26.604Z,5.00
2022-10-17T22:24:54.514Z,4.80
2022-10-17T22:27:23.804Z,4.50
2022-10-17T22:29:51.764Z,4.60
2022-10-17T22:32:22.374Z,4.30
2022-10-17T22:34:50.880Z,4.60
2022-10-17T22:37:18.892Z,5.00
2022-10-17T22:39:46.753Z,4.40
2022-10-17T22:42:15.205Z,4.30
2022-10-17T22:44:43.627Z,4.20
2022-10-17T22:47:11.452Z,4.30
2022-10-17T22:49:39.609Z,4.40
2022-10-17T22:52:07.491Z,4.40
2022-10-17T22:54:35.371Z,4.20
2022-10-17T22:57:03.617Z,4.30
2022-10-17T22:59:31.553Z,4.20
2022-10-17T23:01:59.602Z,4.50
2022-10-17T23:04:27.827Z,4.30
2022-10-17T23:06:55.631Z,4.50
2022-10-17T23:09:23.565Z,4.70
2022-10-17T23:11:51.824Z,5.00
2022-10-17T23:14:19.658Z,4.80
2022-10-17T23:16:47.764Z,4.80
2022-10-17T23:19:15.820Z,4.20
2022-10-17T23:21:43.800Z,4.40
2022-10-17T23:24:11.869Z,4.40
2022-10-17T23:26:40.078Z,4.60
2022-10-17T23:29:07.984Z,3.80
2022-10-17T23:31:36.503Z,4.30
2022-10-17T23:34:05.479Z,4.70
2022-10-17T23:36:33.304Z,4.20
2022-10-17T23:39:01.255Z,4.80
2022-10-17T23:41:29.425Z,5.00
2022-10-17T23:43:57.453Z,4.00
2022-10-17T23:46:25.409Z,4.20
2022-10-17T23:48:53.621Z,4.60
2022-10-17T23:51:22.032Z,3.70
2022-10-17T23:53:50.073Z,4.00
2022-10-17T23:56:18.745Z,4.20
2022-10-17T23:58:46.877Z,4.10
